FACT METAR and TAF | Updated Today

FACT METAR

Cape Town International Airport

Observation time: 16 min. ago

FACT 011500Z 18017KT 9999 FEW035 24/16 Q1015 NOSIG

Need help? Read our tutorial on how to read METARs or read the parsed version below.

Cape Town International Airport (FACT) METAR

  • Weather conditions on Wed, 01 Feb 2023 15:00:00 +0000 (16 min. ago):
  • Present conditions: Dry
  • Clouds: A few at 1067 meters
  • Visibility: Greater than 10 km
  • Wind: 180 degrees at 17 knots
  • Temperature: 24 celsius
  • Dew point: 16 celsius
  • Pressure: 1015 millibars
  • Remarks: None


Useful to know...

FACT TAF

Cape Town International Airport

TAF AMD FACT 011405Z 0112/0218 17015KT 9999 FEW030 TX27/0112Z TN15/0204Z PROB30 TEMPO 0117/0121 BKN013 FM012100 16015KT 9999 BKN020
Observation time: 71 min. ago
Need help? Read our tutorial on how to read TAFs or read the parsed version below.

Parsed version of TAF for Cape Town International Airport (FACT)

  • From 01 February at 12:00 UTC, to day 02 of the month at 18:00 UTC
  • Clouds: A few at 914 meters
  • Visibility: Greater than 10 km
  • Wind: 170 degrees at 15
  • Expected to arise temporarily, from 01 February at 17:00 UTC, to day 01 of the month at 21:00 UTC
    Probability of 30%
  • Clouds: Broken sky at 396 meters
  • From day 1 of the month at 21:00 UTC
  • Clouds: Broken sky at 610 meters
  • Visibility: Greater than 10 km
  • Wind: 160 degrees at 15

Airports near FACT